Time;durP1;ratioP1;P1;durP2;ratioP2;P2;SDS_P1;SDS_P2;PMS_P1;PMS_P2;Temp;Humidity;BMP_temperature;BMP_pressure;BME280_temperature;BME280_humidity;BME280_pressure;Samples;Min_cycle;Max_cycle;Signal;HPM_P1;HPM_P2
2023/01/25 00:00:46;;;;;;;;;;;;;;;11.90;39.67;100611.38;4499846;31;33507;-85
2023/01/25 00:03:13;;;;;;;;;;;;;;;11.58;40.32;100608.59;4492808;31;34282;-85
2023/01/25 00:05:41;;;;;;;;;;;;;;;11.59;40.40;100604.28;4484087;32;35159;-85
2023/01/25 00:08:08;;;;;;;;;;;;;;;11.57;40.38;100605.97;4490681;31;34744;-84
2023/01/25 00:10:36;;;;;;;;;;;;;;;11.30;40.64;100606.84;4499444;31;34097;-85
2023/01/25 00:13:03;;;;;;;;;;;;;;;11.42;40.36;100616.75;4500111;31;35022;-85
2023/01/25 00:15:30;;;;;;;;;;;;;;;11.31;40.58;100618.09;4499614;31;34395;-84
2023/01/25 00:17:57;;;;;;;;;;;;;;;11.16;40.81;100623.66;4495581;31;34306;-85
2023/01/25 00:20:25;;;;;;;;;;;;;;;11.10;41.25;100629.53;4495895;31;34350;-85
2023/01/25 00:22:52;;;;;;;;;;;;;;;11.30;41.15;100616.34;4469710;32;33733;-83
2023/01/25 00:25:19;;;;;;;;;;;;;;;11.24;41.27;100622.19;4489504;31;34456;-85
2023/01/25 00:27:47;;;;;;;;;;;;;;;11.39;41.14;100621.81;4499644;31;34204;-85
2023/01/25 00:30:15;;;;;;;;;;;;;;;11.31;41.23;100628.47;4486793;31;34069;-84
2023/01/25 00:32:49;;;;;;;;;;;;;;;10.47;42.03;100629.03;4492005;31;32735;-85
2023/01/25 00:35:16;;;;;;;;;;;;;;;9.78;44.18;100638.47;4471080;32;35148;-84
2023/01/25 00:37:51;;;;;;;;;;;;;;;8.48;47.32;100655.41;4492458;31;34641;-84
2023/01/25 00:40:18;;;;;;;;;;;;;;;8.68;46.93;100651.16;4472854;32;33000;-84
2023/01/25 00:42:46;;;;;;;;;;;;;;;10.06;43.62;100646.47;4492504;31;34149;-85
2023/01/25 00:45:13;;;;;;;;;;;;;;;10.10;43.41;100650.94;4499488;31;34372;-83
2023/01/25 00:47:41;;;;;;;;;;;;;;;10.52;42.39;100639.56;4485522;31;33919;-84
2023/01/25 00:50:09;;;;;;;;;;;;;;;10.52;42.50;100627.47;4495037;31;33194;-84
2023/01/25 00:52:38;;;;;;;;;;;;;;;10.63;41.79;100626.16;4499549;31;32450;-84
2023/01/25 00:55:06;;;;;;;;;;;;;;;10.55;41.94;100625.00;4499897;31;34428;-83
2023/01/25 00:57:33;;;;;;;;;;;;;;;10.60;42.04;100631.22;4488966;31;34134;-85
2023/01/25 01:00:01;;;;;;;;;;;;;;;10.69;41.42;100630.69;4488856;31;33824;-85
2023/01/25 01:02:29;;;;;;;;;;;;;;;10.66;41.38;100630.59;4485719;31;34300;-85
2023/01/25 01:04:56;;;;;;;;;;;;;;;10.80;40.90;100637.16;4499843;31;35294;-85
2023/01/25 01:07:24;;;;;;;;;;;;;;;10.78;40.83;100632.72;4487886;31;33970;-85
2023/01/25 01:09:51;;;;;;;;;;;;;;;10.94;40.37;100633.28;4474830;31;34018;-85
2023/01/25 01:12:19;;;;;;;;;;;;;;;10.43;41.14;100637.53;4483552;32;35217;-85
2023/01/25 01:14:46;;;;;;;;;;;;;;;10.63;40.96;100636.53;4483715;32;34106;-85
2023/01/25 01:17:13;;;;;;;;;;;;;;;10.59;41.14;100645.03;4483702;31;35082;-85
2023/01/25 01:19:41;;;;;;;;;;;;;;;10.77;40.78;100633.56;4494228;31;34018;-85
2023/01/25 01:22:08;;;;;;;;;;;;;;;10.59;40.65;100642.44;4499163;31;33868;-85
2023/01/25 01:24:35;;;;;;;;;;;;;;;10.61;40.76;100639.91;4489322;31;34138;-84
2023/01/25 01:27:03;;;;;;;;;;;;;;;10.57;40.85;100638.91;4492514;31;34197;-85
2023/01/25 01:29:30;;;;;;;;;;;;;;;10.08;41.94;100637.06;4498602;31;34392;-85
2023/01/25 01:31:57;;;;;;;;;;;;;;;10.37;41.66;100638.16;4499352;31;33937;-84
2023/01/25 01:34:25;;;;;;;;;;;;;;;10.52;41.37;100640.44;4499599;31;35301;-84
2023/01/25 01:36:53;;;;;;;;;;;;;;;10.57;41.19;100649.28;4484087;31;33772;-85
2023/01/25 01:39:20;;;;;;;;;;;;;;;10.11;41.84;100649.22;4494301;31;32842;-85
2023/01/25 01:41:47;;;;;;;;;;;;;;;10.16;41.99;100647.72;4483675;32;33678;-85
2023/01/25 01:44:19;;;;;;;;;;;;;;;10.32;41.54;100644.03;4482293;32;34218;-85
2023/01/25 01:46:56;;;;;;;;;;;;;;;10.60;40.73;100641.59;4477505;32;33815;-84
2023/01/25 01:49:25;;;;;;;;;;;;;;;10.50;41.17;100643.84;4469243;32;32730;-84
2023/01/25 01:52:04;;;;;;;;;;;;;;;10.66;40.78;100641.84;4469202;32;33889;-84
2023/01/25 01:54:46;;;;;;;;;;;;;;;10.75;40.23;100638.69;4494636;31;34267;-85
2023/01/25 01:57:15;;;;;;;;;;;;;;;9.99;41.89;100641.88;4488932;31;33399;-81
2023/01/25 01:59:57;;;;;;;;;;;;;;;10.17;41.93;100639.12;4470502;32;33488;-84
2023/01/25 02:02:24;;;;;;;;;;;;;;;10.48;41.45;100636.84;4482601;32;34370;-84
2023/01/25 02:04:52;;;;;;;;;;;;;;;10.58;41.07;100629.44;4481549;31;34202;-85
2023/01/25 02:07:21;;;;;;;;;;;;;;;10.73;40.45;100626.50;4473757;32;34983;-84
2023/01/25 02:09:49;;;;;;;;;;;;;;;10.61;40.83;100637.31;4483766;32;32780;-84
2023/01/25 02:12:18;;;;;;;;;;;;;;;10.67;40.77;100634.94;4483263;32;34552;-84
2023/01/25 02:14:50;;;;;;;;;;;;;;;10.79;40.35;100624.09;4479053;31;34373;-84
2023/01/25 02:17:22;;;;;;;;;;;;;;;10.79;40.25;100626.69;4498848;31;33984;-84
2023/01/25 02:20:01;;;;;;;;;;;;;;;10.67;40.67;100620.25;4498709;31;34122;-84
2023/01/25 02:22:32;;;;;;;;;;;;;;;10.55;41.05;100614.62;4498860;31;34956;-85
2023/01/25 02:25:04;;;;;;;;;;;;;;;10.40;41.49;100614.06;4481591;31;35125;-83
2023/01/25 02:27:33;;;;;;;;;;;;;;;10.52;41.47;100611.91;4498924;31;34084;-83
2023/01/25 02:30:00;;;;;;;;;;;;;;;10.47;41.39;100601.38;4498570;31;34196;-84
2023/01/25 02:32:27;;;;;;;;;;;;;;;10.56;40.91;100616.37;4497028;31;34086;-84
2023/01/25 02:34:54;;;;;;;;;;;;;;;10.61;40.84;100604.50;4474092;32;34525;-85
2023/01/25 02:37:22;;;;;;;;;;;;;;;10.63;40.91;100610.59;4482701;32;34290;-82
2023/01/25 02:39:50;;;;;;;;;;;;;;;9.69;42.09;100616.53;4468367;32;33387;-84
2023/01/25 02:42:17;;;;;;;;;;;;;;;8.81;43.78;100613.78;4478511;31;34004;-84
2023/01/25 02:44:44;;;;;;;;;;;;;;;9.82;41.58;100610.16;4489490;31;34167;-84
2023/01/25 02:47:12;;;;;;;;;;;;;;;10.19;40.94;100602.06;4481321;32;34140;-85
2023/01/25 02:49:39;;;;;;;;;;;;;;;9.52;41.94;100594.28;4482484;32;33164;-82
2023/01/25 02:52:07;;;;;;;;;;;;;;;10.02;41.00;100594.47;4491196;31;33951;-84
2023/01/25 02:54:34;;;;;;;;;;;;;;;10.07;40.94;100591.22;4490417;31;34277;-83
2023/01/25 02:57:03;;;;;;;;;;;;;;;10.41;40.36;100584.72;4493543;31;34943;-83
2023/01/25 02:59:32;;;;;;;;;;;;;;;10.47;40.13;100577.19;4498760;31;33924;-84
2023/01/25 03:01:59;;;;;;;;;;;;;;;10.45;40.07;100578.81;4491304;31;34952;-83
2023/01/25 03:04:27;;;;;;;;;;;;;;;10.53;39.73;100566.13;4496742;31;34427;-85
2023/01/25 03:06:54;;;;;;;;;;;;;;;10.29;40.31;100576.50;4488855;31;34698;-84
2023/01/25 03:09:22;;;;;;;;;;;;;;;10.27;40.02;100583.38;4481153;32;33240;-83
2023/01/25 03:11:49;;;;;;;;;;;;;;;10.49;39.41;100578.09;4487676;31;34303;-83
2023/01/25 03:14:17;;;;;;;;;;;;;;;9.99;40.12;100570.22;4498843;31;33534;-84
2023/01/25 03:16:44;;;;;;;;;;;;;;;9.86;40.21;100569.72;4491831;31;34670;-83
2023/01/25 03:19:12;;;;;;;;;;;;;;;9.95;40.21;100573.50;4484538;32;33177;-84
2023/01/25 03:21:39;;;;;;;;;;;;;;;10.18;39.77;100568.31;4488537;31;35146;-83
2023/01/25 03:24:07;;;;;;;;;;;;;;;10.15;39.87;100570.78;4490073;31;35060;-84
2023/01/25 03:27:09;;;;;;;;;;;;;;;10.05;39.86;100569.56;4483425;32;33996;-83
2023/01/25 03:29:23;;;;;;;;;;;;;;;9.78;40.30;100566.81;4484338;32;34116;-84
2023/01/25 03:31:51;;;;;;;;;;;;;;;10.15;39.84;100563.91;4469808;32;34293;-85
2023/01/25 03:34:19;;;;;;;;;;;;;;;10.05;40.02;100572.16;4484534;31;35862;-84
2023/01/25 03:36:46;;;;;;;;;;;;;;;10.05;39.88;100576.47;4484259;32;33916;-84
2023/01/25 03:39:13;;;;;;;;;;;;;;;10.33;39.25;100571.47;4489997;31;33349;-85
2023/01/25 03:41:41;;;;;;;;;;;;;;;10.13;39.40;100565.53;4495464;31;34250;-83
2023/01/25 03:44:10;;;;;;;;;;;;;;;10.15;39.67;100571.69;4484489;32;34186;-84
2023/01/25 03:46:38;;;;;;;;;;;;;;;9.81;40.15;100571.22;4484414;32;34561;-83
2023/01/25 03:49:06;;;;;;;;;;;;;;;9.78;40.38;100571.12;4478031;31;33699;-83
2023/01/25 03:51:33;;;;;;;;;;;;;;;9.97;40.06;100571.88;4495805;31;33628;-84
2023/01/25 03:54:01;;;;;;;;;;;;;;;10.07;39.73;100567.91;4484633;31;32745;-84
2023/01/25 03:56:28;;;;;;;;;;;;;;;9.98;40.04;100577.94;4500255;31;33941;-84
2023/01/25 03:58:56;;;;;;;;;;;;;;;10.08;39.62;100564.50;4500070;31;33127;-84
2023/01/25 04:01:24;;;;;;;;;;;;;;;10.14;39.43;100561.25;4497612;31;34114;-84
2023/01/25 04:03:52;;;;;;;;;;;;;;;10.22;39.13;100560.69;4484789;31;34301;-84
2023/01/25 04:06:19;;;;;;;;;;;;;;;10.09;39.19;100573.16;4499878;31;33785;-84
2023/01/25 04:08:46;;;;;;;;;;;;;;;9.94;39.67;100568.28;4500344;31;33179;-84
2023/01/25 04:11:15;;;;;;;;;;;;;;;9.86;39.64;100564.53;4498852;31;33815;-84
2023/01/25 04:13:43;;;;;;;;;;;;;;;9.94;39.56;100569.16;4484538;31;34028;-84
2023/01/25 04:16:11;;;;;;;;;;;;;;;9.83;39.84;100569.59;4484178;32;34720;-83
2023/01/25 04:18:43;;;;;;;;;;;;;;;10.00;39.60;100560.75;4484178;31;33489;-84
2023/01/25 04:21:10;;;;;;;;;;;;;;;10.03;39.33;100558.25;4484056;31;34372;-83
2023/01/25 04:23:37;;;;;;;;;;;;;;;9.93;39.67;100561.34;4499771;31;34439;-84
2023/01/25 04:26:06;;;;;;;;;;;;;;;9.87;39.51;100564.56;4484320;31;34737;-82
2023/01/25 04:28:33;;;;;;;;;;;;;;;9.74;39.74;100576.19;4482963;32;33869;-84
2023/01/25 04:31:02;;;;;;;;;;;;;;;9.93;39.42;100577.78;4484128;32;33923;-84
2023/01/25 04:33:31;;;;;;;;;;;;;;;10.14;38.83;100566.44;4498025;31;35241;-85
2023/01/25 04:35:58;;;;;;;;;;;;;;;9.49;39.98;100578.63;4485662;31;34524;-84
2023/01/25 04:38:25;;;;;;;;;;;;;;;9.84;39.46;100576.53;4470091;32;32668;-85
2023/01/25 04:40:53;;;;;;;;;;;;;;;9.76;39.52;100568.47;4484056;32;34310;-84
2023/01/25 04:43:23;;;;;;;;;;;;;;;9.59;39.96;100577.31;4497826;31;34585;-84
2023/01/25 04:45:52;;;;;;;;;;;;;;;9.33;40.64;100573.69;4486265;31;35034;-85
2023/01/25 04:48:20;;;;;;;;;;;;;;;9.65;40.19;100569.75;4483747;32;33482;-84
2023/01/25 04:50:48;;;;;;;;;;;;;;;9.63;40.19;100577.47;4483952;32;34183;-85
2023/01/25 04:53:16;;;;;;;;;;;;;;;9.46;40.58;100569.03;4485194;31;33998;-85
2023/01/25 04:55:46;;;;;;;;;;;;;;;9.65;40.47;100573.22;4487685;31;33670;-85
2023/01/25 04:58:13;;;;;;;;;;;;;;;9.86;40.12;100569.72;4482692;32;33905;-84
2023/01/25 05:00:41;;;;;;;;;;;;;;;9.73;40.60;100569.22;4482512;32;34995;-85
2023/01/25 05:03:09;;;;;;;;;;;;;;;9.72;40.61;100572.63;4495934;31;34893;-85
2023/01/25 05:05:36;;;;;;;;;;;;;;;9.97;40.26;100571.00;4489544;31;33560;-84
2023/01/25 05:08:04;;;;;;;;;;;;;;;9.89;40.47;100575.00;4484046;32;33397;-84
2023/01/25 05:10:31;;;;;;;;;;;;;;;9.71;41.04;100573.47;4491476;31;34991;-83
2023/01/25 05:13:01;;;;;;;;;;;;;;;9.66;41.26;100572.41;4488450;31;34543;-85
2023/01/25 05:15:28;;;;;;;;;;;;;;;9.94;41.16;100582.13;4488920;31;33904;-84
2023/01/25 05:17:56;;;;;;;;;;;;;;;10.09;41.00;100583.53;4483828;31;33178;-85
2023/01/25 05:20:23;;;;;;;;;;;;;;;9.54;42.32;100577.09;4483928;31;34190;-85
2023/01/25 05:22:51;;;;;;;;;;;;;;;10.04;41.60;100580.78;4484741;31;34490;-85
2023/01/25 05:28:06;;;;;;;;;;;;;;;10.10;41.85;100587.88;4483689;32;34023;-84
2023/01/25 05:30:34;;;;;;;;;;;;;;;10.27;41.59;100576.47;4470955;31;33540;-84
2023/01/25 05:33:02;;;;;;;;;;;;;;;10.24;41.83;100584.09;4495796;31;34843;-84
2023/01/25 05:35:29;;;;;;;;;;;;;;;10.50;41.57;100585.06;4486719;31;33208;-84
2023/01/25 05:37:57;;;;;;;;;;;;;;;10.41;41.85;100576.94;4472455;32;33365;-82
2023/01/25 05:40:26;;;;;;;;;;;;;;;9.79;43.32;100585.84;4484110;31;35067;-85
2023/01/25 05:42:57;;;;;;;;;;;;;;;9.45;44.40;100582.81;4483382;32;34212;-84
2023/01/25 05:45:25;;;;;;;;;;;;;;;7.79;49.14;100597.09;4484866;31;35011;-85
2023/01/25 05:47:54;;;;;;;;;;;;;;;8.89;46.53;100577.91;4485580;31;34200;-84
2023/01/25 05:50:22;;;;;;;;;;;;;;;8.55;47.18;100581.62;4477522;31;33870;-84
2023/01/25 05:52:50;;;;;;;;;;;;;;;9.03;46.12;100581.94;4469483;32;35125;-83
2023/01/25 05:55:17;;;;;;;;;;;;;;;9.18;45.99;100577.41;4468940;31;34113;-86
2023/01/25 05:57:44;;;;;;;;;;;;;;;9.51;45.09;100582.19;4483973;31;34184;-83
2023/01/25 06:00:12;;;;;;;;;;;;;;;9.68;44.70;100580.22;4489124;31;34027;-85
2023/01/25 06:02:40;;;;;;;;;;;;;;;9.30;45.17;100581.31;4483160;32;35312;-86
2023/01/25 06:05:08;;;;;;;;;;;;;;;9.67;44.21;100589.72;4483140;32;33756;-85
2023/01/25 06:07:36;;;;;;;;;;;;;;;9.45;44.68;100587.97;4490595;31;33269;-84
2023/01/25 06:10:04;;;;;;;;;;;;;;;9.41;44.78;100587.81;4491551;31;34784;-85
2023/01/25 06:12:31;;;;;;;;;;;;;;;9.49;44.60;100579.50;4498856;31;35065;-85
2023/01/25 06:14:59;;;;;;;;;;;;;;;9.64;44.28;100587.00;4498755;31;34208;-83
2023/01/25 06:17:29;;;;;;;;;;;;;;;9.83;44.01;100587.72;4498842;31;33185;-84
2023/01/25 06:19:57;;;;;;;;;;;;;;;10.10;43.75;100591.34;4491903;31;34365;-86
2023/01/25 06:22:25;;;;;;;;;;;;;;;10.39;43.17;100583.81;4482876;32;35124;-86
2023/01/25 06:24:52;;;;;;;;;;;;;;;10.48;43.03;100585.00;4481642;32;34290;-85
2023/01/25 06:27:19;;;;;;;;;;;;;;;10.36;43.09;100594.06;4482653;32;34222;-85
2023/01/25 06:29:47;;;;;;;;;;;;;;;10.13;43.67;100601.81;4487473;31;34813;-86
2023/01/25 06:32:14;;;;;;;;;;;;;;;10.30;43.39;100604.19;4498634;31;34389;-85
2023/01/25 06:34:42;;;;;;;;;;;;;;;9.94;44.13;100609.72;4484139;31;34227;-84
2023/01/25 06:37:09;;;;;;;;;;;;;;;10.06;43.88;100607.59;4498787;31;31803;-85
2023/01/25 06:39:37;;;;;;;;;;;;;;;10.17;43.66;100608.00;4494852;31;34224;-85
2023/01/25 06:42:04;;;;;;;;;;;;;;;9.73;44.26;100609.78;4482574;31;35013;-83
2023/01/25 06:44:31;;;;;;;;;;;;;;;9.92;44.29;100606.19;4488237;31;34205;-84
2023/01/25 06:46:59;;;;;;;;;;;;;;;9.96;44.25;100613.25;4482854;32;34067;-84
2023/01/25 06:49:26;;;;;;;;;;;;;;;10.33;43.55;100609.50;4483834;32;34360;-84
2023/01/25 06:51:53;;;;;;;;;;;;;;;10.07;43.70;100611.94;4484828;32;34283;-84
2023/01/25 06:54:21;;;;;;;;;;;;;;;10.40;43.34;100608.88;4484894;32;34068;-84
2023/01/25 06:56:48;;;;;;;;;;;;;;;10.63;43.01;100607.13;4484629;32;33420;-84
2023/01/25 06:59:15;;;;;;;;;;;;;;;10.45;42.78;100605.66;4484637;32;35062;-85
2023/01/25 07:01:42;;;;;;;;;;;;;;;10.15;43.83;100609.66;4493002;31;34178;-83
2023/01/25 07:04:13;;;;;;;;;;;;;;;10.07;44.15;100605.88;4494912;31;33663;-85
2023/01/25 07:06:40;;;;;;;;;;;;;;;10.32;43.62;100607.72;4486007;31;33227;-84
2023/01/25 07:09:09;;;;;;;;;;;;;;;9.67;44.74;100609.56;4500262;31;35121;-84
2023/01/25 07:11:36;;;;;;;;;;;;;;;9.22;46.36;100607.75;4485690;31;34129;-83
2023/01/25 07:14:03;;;;;;;;;;;;;;;9.96;44.58;100613.25;4499965;31;34933;-82
2023/01/25 07:16:37;;;;;;;;;;;;;;;9.66;45.37;100610.34;4484259;32;33455;-84
2023/01/25 07:19:04;;;;;;;;;;;;;;;8.35;48.45;100618.59;4484350;32;34986;-84
2023/01/25 07:21:33;;;;;;;;;;;;;;;9.78;45.29;100604.81;4486812;31;34450;-84
2023/01/25 07:24:02;;;;;;;;;;;;;;;10.07;44.85;100613.66;4500016;31;34968;-85
2023/01/25 07:26:30;;;;;;;;;;;;;;;10.31;44.36;100601.66;4486038;31;33454;-84
2023/01/25 07:28:58;;;;;;;;;;;;;;;9.88;45.43;100609.50;4500126;31;35149;-83
2023/01/25 07:31:25;;;;;;;;;;;;;;;10.22;44.54;100606.47;4498280;31;34907;-85
2023/01/25 07:33:53;;;;;;;;;;;;;;;10.11;44.72;100600.00;4484510;32;34399;-84
2023/01/25 07:36:21;;;;;;;;;;;;;;;10.49;43.94;100604.03;4484718;31;33562;-84
2023/01/25 07:38:51;;;;;;;;;;;;;;;9.69;45.47;100608.75;4484164;32;34416;-83
2023/01/25 07:41:18;;;;;;;;;;;;;;;9.43;46.63;100609.44;4486235;31;34106;-82
2023/01/25 07:43:45;;;;;;;;;;;;;;;9.83;45.67;100616.22;4484428;31;34265;-83
2023/01/25 07:46:17;;;;;;;;;;;;;;;10.20;44.92;100614.19;4484551;32;34072;-84
2023/01/25 07:48:45;;;;;;;;;;;;;;;8.86;47.59;100613.97;4487082;31;34021;-84
2023/01/25 07:51:21;;;;;;;;;;;;;;;8.85;47.26;100609.63;4483245;32;35125;-84
2023/01/25 07:53:50;;;;;;;;;;;;;;;8.37;48.74;100616.94;4484340;32;34213;-84
2023/01/25 07:56:18;;;;;;;;;;;;;;;8.09;49.76;100618.28;4485988;31;33533;-82
2023/01/25 07:58:45;;;;;;;;;;;;;;;8.03;49.87;100616.34;4472288;32;33854;-83
2023/01/25 08:01:17;;;;;;;;;;;;;;;7.40;51.57;100616.75;4483703;32;35282;-84
2023/01/25 08:03:45;;;;;;;;;;;;;;;7.92;50.52;100614.06;4484128;32;34321;-83
2023/01/25 08:06:13;;;;;;;;;;;;;;;6.98;52.68;100613.81;4469875;32;34307;-83
2023/01/25 08:08:41;;;;;;;;;;;;;;;7.46;52.28;100614.44;4484060;32;34864;-84
2023/01/25 08:11:16;;;;;;;;;;;;;;;7.90;51.33;100616.56;4484124;32;33924;-82
2023/01/25 08:13:48;;;;;;;;;;;;;;;8.60;49.13;100606.00;4469913;32;33881;-84
2023/01/25 08:16:16;;;;;;;;;;;;;;;8.90;48.73;100616.78;4484214;32;33790;-83
2023/01/25 08:18:50;;;;;;;;;;;;;;;8.50;49.37;100607.28;4469731;32;34642;-83
2023/01/25 08:21:18;;;;;;;;;;;;;;;8.13;50.04;100615.03;4484020;32;34433;-84
2023/01/25 08:23:45;;;;;;;;;;;;;;;7.95;50.47;100616.78;4483843;32;34208;-84
2023/01/25 08:26:13;;;;;;;;;;;;;;;7.83;50.59;100611.03;4483888;32;33274;-84
2023/01/25 08:28:40;;;;;;;;;;;;;;;7.40;51.92;100619.31;4484064;32;34270;-84
2023/01/25 08:31:08;;;;;;;;;;;;;;;8.49;49.36;100613.28;4483992;32;34032;-83
2023/01/25 08:33:35;;;;;;;;;;;;;;;8.42;49.51;100612.94;4469533;32;34214;-84
2023/01/25 08:36:03;;;;;;;;;;;;;;;8.20;49.81;100613.63;4484009;32;33418;-84
2023/01/25 08:38:31;;;;;;;;;;;;;;;8.42;48.84;100610.34;4483693;32;34325;-83
2023/01/25 08:41:05;;;;;;;;;;;;;;;8.48;49.25;100606.31;4483954;32;34453;-83
2023/01/25 08:43:32;;;;;;;;;;;;;;;8.82;48.48;100602.59;4484217;32;34075;-84
2023/01/25 08:45:59;;;;;;;;;;;;;;;8.42;49.71;100605.19;4483607;32;34250;-83
2023/01/25 08:48:27;;;;;;;;;;;;;;;9.40;47.71;100605.03;4483749;32;34852;-83
2023/01/25 08:50:54;;;;;;;;;;;;;;;9.96;45.90;100592.53;4483810;32;33952;-84
2023/01/25 08:53:22;;;;;;;;;;;;;;;10.02;46.10;100597.06;4483826;32;35133;-83
2023/01/25 08:55:49;;;;;;;;;;;;;;;9.78;46.44;100591.84;4484110;32;32994;-84
2023/01/25 08:58:20;;;;;;;;;;;;;;;9.54;46.89;100587.44;4484098;32;34207;-83
2023/01/25 09:00:48;;;;;;;;;;;;;;;9.06;48.04;100592.44;4483737;32;34291;-84
2023/01/25 09:03:16;;;;;;;;;;;;;;;9.05;48.19;100584.59;4483497;32;34545;-84
2023/01/25 09:05:44;;;;;;;;;;;;;;;9.23;47.59;100587.94;4483743;32;34252;-83
2023/01/25 09:08:11;;;;;;;;;;;;;;;8.00;50.62;100594.66;4483775;32;34104;-83
2023/01/25 09:10:39;;;;;;;;;;;;;;;7.99;50.79;100601.50;4483837;32;35271;-83
2023/01/25 09:13:06;;;;;;;;;;;;;;;7.90;51.33;100597.59;4483972;32;33992;-84
2023/01/25 09:15:34;;;;;;;;;;;;;;;8.59;49.68;100587.81;4483991;32;33490;-84
2023/01/25 09:18:01;;;;;;;;;;;;;;;8.49;49.91;100586.53;4483644;32;34113;-83
2023/01/25 09:20:29;;;;;;;;;;;;;;;8.51;49.70;100579.72;4483550;32;34271;-84
2023/01/25 09:23:00;;;;;;;;;;;;;;;9.37;48.33;100578.16;4469664;32;34844;-84
2023/01/25 09:25:27;;;;;;;;;;;;;;;9.59;47.85;100578.19;4483665;32;33531;-84
2023/01/25 09:27:55;;;;;;;;;;;;;;;9.88;47.31;100570.62;4483367;32;34245;-84
2023/01/25 09:30:22;;;;;;;;;;;;;;;10.12;46.11;100574.16;4483387;32;34089;-84
2023/01/25 09:33:08;;;;;;;;;;;;;;;9.10;47.71;100578.78;4483582;32;34119;-83
2023/01/25 09:35:36;;;;;;;;;;;;;;;9.60;46.76;100577.34;4468872;32;32309;-84
2023/01/25 09:38:03;;;;;;;;;;;;;;;8.53;49.78;100578.97;4483469;32;33224;-83
2023/01/25 09:40:33;;;;;;;;;;;;;;;8.50;49.89;100580.53;4483693;32;34523;-84
2023/01/25 09:43:03;;;;;;;;;;;;;;;9.00;48.77;100571.47;4469387;32;34195;-83
2023/01/25 09:45:34;;;;;;;;;;;;;;;8.65;49.42;100575.16;4483636;32;33933;-83
2023/01/25 09:48:11;;;;;;;;;;;;;;;8.21;50.78;100579.22;4483378;32;34953;-83
2023/01/25 09:50:38;;;;;;;;;;;;;;;9.22;48.19;100560.28;4483199;32;35197;-84
2023/01/25 09:53:20;;;;;;;;;;;;;;;9.46;47.49;100560.38;4483220;32;34352;-84
2023/01/25 09:55:52;;;;;;;;;;;;;;;9.68;47.37;100560.41;4483369;32;34259;-84
2023/01/25 09:58:21;;;;;;;;;;;;;;;10.21;46.11;100548.56;4469248;32;34873;-83
2023/01/25 10:00:50;;;;;;;;;;;;;;;10.29;45.72;100542.81;4469159;32;34566;-83
2023/01/25 10:03:31;;;;;;;;;;;;;;;10.21;45.67;100543.38;4468957;32;34260;-84
2023/01/25 10:05:59;;;;;;;;;;;;;;;10.25;45.59;100544.41;4483315;32;33451;-84
2023/01/25 10:08:26;;;;;;;;;;;;;;;10.03;46.03;100537.53;4469002;32;34192;-84
2023/01/25 10:11:19;;;;;;;;;;;;;;;10.67;44.71;100534.66;4483082;32;35090;-83
2023/01/25 10:13:47;;;;;;;;;;;;;;;10.08;45.74;100533.41;4479927;32;34342;-83
2023/01/25 10:16:17;;;;;;;;;;;;;;;10.26;45.58;100519.38;4468916;32;33530;-83
2023/01/25 10:19:09;;;;;;;;;;;;;;;9.71;46.90;100519.09;4482774;32;34316;-83
2023/01/25 10:21:39;;;;;;;;;;;;;;;9.91;46.17;100517.22;4468954;32;33521;-83
2023/01/25 10:24:23;;;;;;;;;;;;;;;9.81;46.32;100509.97;4482185;32;34995;-84
2023/01/25 10:26:51;;;;;;;;;;;;;;;9.85;46.31;100511.84;4483249;32;33103;-84
2023/01/25 10:29:20;;;;;;;;;;;;;;;10.36;45.55;100500.72;4455991;32;35124;-83
2023/01/25 10:31:52;;;;;;;;;;;;;;;9.80;46.98;100508.19;4483046;32;34498;-83
2023/01/25 10:34:30;;;;;;;;;;;;;;;10.08;46.25;100506.62;4482832;32;34367;-83
2023/01/25 10:37:02;;;;;;;;;;;;;;;9.12;47.86;100509.88;4469307;32;33062;-84
2023/01/25 10:39:30;;;;;;;;;;;;;;;8.67;49.13;100511.47;4482828;32;34220;-83
2023/01/25 10:42:03;;;;;;;;;;;;;;;8.63;49.58;100504.41;4482641;32;34175;-84
2023/01/25 10:44:31;;;;;;;;;;;;;;;9.55;47.62;100498.63;4468482;32;34543;-83
2023/01/25 10:47:00;;;;;;;;;;;;;;;8.65;49.49;100495.00;4455465;32;32663;-83
2023/01/25 10:49:54;;;;;;;;;;;;;;;9.46;47.76;100490.50;4468288;32;35166;-84
2023/01/25 10:52:26;;;;;;;;;;;;;;;9.40;47.79;100492.88;4479286;32;34684;-83
2023/01/25 10:55:13;;;;;;;;;;;;;;;9.61;47.22;100485.00;4468400;32;34990;-83
2023/01/25 10:57:54;;;;;;;;;;;;;;;9.46;47.35;100493.06;4482378;32;34390;-83
2023/01/25 11:00:33;;;;;;;;;;;;;;;9.56;46.91;100497.78;4468387;32;34601;-84
2023/01/25 11:03:01;;;;;;;;;;;;;;;9.53;47.01;100491.63;4482269;32;35328;-83
2023/01/25 11:05:35;;;;;;;;;;;;;;;9.53;47.02;100483.84;4468316;32;34939;-84
2023/01/25 11:08:21;;;;;;;;;;;;;;;9.25;47.63;100480.22;4468332;32;34191;-83
2023/01/25 11:10:48;;;;;;;;;;;;;;;8.97;48.92;100483.38;4482334;32;33820;-84
2023/01/25 11:13:18;;;;;;;;;;;;;;;9.42;47.64;100473.09;4468179;32;35426;-83
2023/01/25 11:15:46;;;;;;;;;;;;;;;10.22;46.12;100457.03;4482296;32;34734;-84
2023/01/25 11:18:35;;;;;;;;;;;;;;;10.63;45.15;100455.00;4468328;32;33344;-84
2023/01/25 11:21:23;;;;;;;;;;;;;;;10.77;44.50;100455.44;4482177;32;34446;-84
2023/01/25 11:24:03;;;;;;;;;;;;;;;10.17;45.68;100458.56;4468393;32;34156;-84
2023/01/25 11:26:31;;;;;;;;;;;;;;;10.15;45.83;100444.72;4482164;32;34949;-83
2023/01/25 11:29:11;;;;;;;;;;;;;;;10.33;45.67;100446.19;4482242;32;33398;-84
2023/01/25 11:31:44;;;;;;;;;;;;;;;9.88;46.31;100438.53;4481996;32;33598;-84
2023/01/25 11:34:15;;;;;;;;;;;;;;;9.49;47.10;100439.72;4468442;32;34335;-84
2023/01/25 11:36:43;;;;;;;;;;;;;;;9.74;46.67;100441.53;4483696;32;35254;-84
2023/01/25 11:39:13;;;;;;;;;;;;;;;9.78;46.71;100426.09;4484419;32;34234;-84
2023/01/25 11:41:46;;;;;;;;;;;;;;;10.03;46.10;100425.25;4484386;32;34102;-84
2023/01/25 11:44:13;;;;;;;;;;;;;;;10.00;45.82;100423.44;4484159;32;33986;-84
2023/01/25 11:46:40;;;;;;;;;;;;;;;9.43;47.14;100420.47;4469125;32;32432;-83
2023/01/25 11:49:07;;;;;;;;;;;;;;;9.42;47.10;100421.31;4484140;32;34293;-83
2023/01/25 11:51:39;;;;;;;;;;;;;;;9.20;48.07;100410.13;4484140;32;33882;-83
2023/01/25 11:54:25;;;;;;;;;;;;;;;9.54;47.28;100406.22;4469927;32;35202;-83
2023/01/25 11:57:00;;;;;;;;;;;;;;;9.87;46.79;100391.03;4484246;32;34349;-83
2023/01/25 11:59:42;;;;;;;;;;;;;;;10.14;45.62;100380.72;4456924;32;33197;-83
2023/01/25 12:02:28;;;;;;;;;;;;;;;9.31;47.24;100378.63;4484114;32;33707;-84
2023/01/25 12:05:15;;;;;;;;;;;;;;;9.18;48.23;100369.53;4484150;32;33885;-83
2023/01/25 12:07:48;;;;;;;;;;;;;;;9.54;47.08;100364.81;4470671;32;34427;-83
2023/01/25 12:10:19;;;;;;;;;;;;;;;9.60;47.04;100361.56;4483907;32;33419;-83
2023/01/25 12:13:02;;;;;;;;;;;;;;;9.81;46.45;100359.75;4469921;32;34016;-83
2023/01/25 12:15:29;;;;;;;;;;;;;;;8.73;49.17;100359.19;4469609;32;34745;-84
2023/01/25 12:17:56;;;;;;;;;;;;;;;9.01;47.92;100355.94;4483871;32;34908;-83
2023/01/25 12:20:39;;;;;;;;;;;;;;;9.90;46.32;100354.88;4484042;32;33347;-83
2023/01/25 12:23:10;;;;;;;;;;;;;;;10.45;45.20;100346.38;4483754;32;34103;-84
2023/01/25 12:25:40;;;;;;;;;;;;;;;10.26;45.80;100348.31;4469701;32;35219;-84
2023/01/25 12:28:16;;;;;;;;;;;;;;;10.64;44.67;100334.84;4483802;32;33997;-84
2023/01/25 12:31:03;;;;;;;;;;;;;;;10.61;44.92;100332.19;4469864;32;34040;-84
2023/01/25 12:33:37;;;;;;;;;;;;;;;10.89;44.51;100335.63;4483827;32;33885;-83
2023/01/25 12:36:18;;;;;;;;;;;;;;;10.42;44.93;100337.62;4484157;32;34151;-83
2023/01/25 12:38:55;;;;;;;;;;;;;;;10.77;44.70;100322.28;4483957;32;33998;-84
2023/01/25 12:41:27;;;;;;;;;;;;;;;11.18;43.72;100323.50;4483880;32;33411;-83
2023/01/25 12:43:58;;;;;;;;;;;;;;;11.07;43.09;100318.00;4469442;32;35379;-83
2023/01/25 12:46:27;;;;;;;;;;;;;;;10.78;44.22;100316.25;4483590;32;34458;-84
2023/01/25 12:48:56;;;;;;;;;;;;;;;10.53;44.74;100324.97;4470149;32;33800;-83
2023/01/25 12:51:23;;;;;;;;;;;;;;;10.85;44.10;100321.66;4469636;32;34215;-84
2023/01/25 12:53:51;;;;;;;;;;;;;;;11.03;44.04;100310.97;4469582;32;34347;-84
2023/01/25 12:56:39;;;;;;;;;;;;;;;11.04;43.52;100319.63;4483845;32;35261;-83
2023/01/25 12:59:10;;;;;;;;;;;;;;;10.81;43.56;100318.94;4469922;32;34824;-83